CheckWX is a tool to help pilots better visualize weather data.  It is not intended as a substitute for an official pre-flight weather briefing.

21:00:46 UTC

KTRI METAR
Tri-Cities Airport
Bristol/Johnson/Kingsport, Tennessee, USA
Current

1 hour ago

KTRI 171953Z 00000KT 10SM SCT055 SCT065 SCT085 32/17 A3002 RMK AO2 SLP140 T03170172
Observed
Sep-17 @ 19:53 UTC
Visibility
10 SM
Flight Rules
VFR
Cloud Levels
  • Scattered at 5,500' AGL
  • Scattered at 6,500' AGL
  • Scattered at 8,500' AGL
Temperature
32°C / 90°F
Dewpoint
17°C / 63°F
Heat Index
33°C / 91°F
Humidity
41%
Altimeter
30.02" Hg
Pressure
1016.62 hPa
Previous

2 hours ago

KTRI 171853Z VRB03KT 10SM SCT055 SCT080 32/17 A3004 RMK AO2 SLP145 T03170172
Observed
Sep-17 @ 18:53 UTC
Wind
  • Variable at 3 KTS
Visibility
10 SM
Flight Rules
VFR
Cloud Levels
  • Scattered at 5,500' AGL
  • Scattered at 8,000' AGL
Temperature
32°C / 90°F
Dewpoint
17°C / 63°F
Heat Index
33°C / 91°F
Humidity
41%
Altimeter
30.04" Hg
Pressure
1017.32 hPa
Previous

3 hours ago

KTRI 171753Z 30005KT 10SM SCT055 SCT070 31/17 A3006 RMK AO2 SLP150 T03060167 10317 20189 58013
Observed
Sep-17 @ 17:53 UTC
Wind
  • 300° at 5 KTS
Visibility
10 SM
Flight Rules
VFR
Cloud Levels
  • Scattered at 5,500' AGL
  • Scattered at 7,000' AGL
Temperature
31°C / 88°F
Dewpoint
17°C / 63°F
Heat Index
32°C / 89°F
Humidity
43%
Altimeter
30.06" Hg
Pressure
1017.92 hPa